Roaz — CQVY — position and weather

sailwx.info

Track history (hours):
 
Tides and Currents Weather Stations Pressure Air Temp Water Temp Dewpoint Dewpoint Depression Visibility Wind Speed Wind Dir Waves Ship Positions

Roaz

Last reported at 2017-Nov-19 23:23 UTC. Time now 2017-Nov-24 02:08 UTC.
Position N 36°16' W 011°56'.

Length 82 m; draft 5.7 m.

Type: Cargo ship. MMSI: 255929000.

Date/timePositionNaut miles runAvg speedWind from/ knotsBaromVisibWave heightAir tempDewpointWater temp
2017-Nov-19 23:23N 36°16' W 011°56'410.6
2017-Nov-19 23:00N 36°19' W 011°52'510.4
2017-Nov-19 22:30N 36°22' W 011°48'510.6
2017-Nov-19 22:00N 36°26' W 011°43'611.1
2017-Nov-19 21:30N 36°30' W 011°38'611.0
2017-Nov-19 21:00N 36°33' W 011°32'510.3
2017-Nov-19 20:30N 36°37' W 011°28'510.1
2017-Nov-19 20:00N 36°40' W 011°23'510.1
2017-Nov-19 19:30N 36°43' W 011°18'510.3
2017-Nov-19 19:00N 36°47' W 011°13'510.3
2017-Nov-19 18:30N 36°50' W 011°09'510.3
2017-Nov-19 18:00N 36°54' W 011°04'510.2
2017-Nov-19 17:29N 36°58' W 010°59'710.4
2017-Nov-19 16:51N 37°02' W 010°54'610.3
2017-Nov-19 16:17N 37°07' W 010°48'710.1
2017-Nov-19 15:33N 37°12' W 010°42'0 9.8
2017-Nov-19 15:30N 37°12' W 010°42'510.0
2017-Nov-19 15:00N 37°16' W 010°37'510.3
2017-Nov-19 14:30N 37°19' W 010°32'510.5
2017-Nov-19 14:00N 37°22' W 010°27'510.4
2017-Nov-19 13:30N 37°26' W 010°22'510.1
2017-Nov-19 13:00N 37°29' W 010°18'510.1
2017-Nov-19 12:30N 37°33' W 010°13'510.0
2017-Nov-19 11:58N 37°36' W 010°08'510.1
2017-Nov-19 11:30N 37°39' W 010°04'5 9.8
2017-Nov-19 11:00N 37°43' W 009°59'5 9.8
2017-Nov-19 10:30N 37°46' W 009°55'5 9.8
2017-Nov-19 10:00N 37°49' W 009°50'510.2
2017-Nov-19 09:30N 37°53' W 009°45'510.2
2017-Nov-19 09:00N 37°56' W 009°40'510.4
2017-Nov-19 08:30N 37°60' W 009°36'510.2
2017-Nov-19 08:00N 38°03' W 009°31'5 9.9
2017-Nov-19 07:30N 38°07' W 009°27'510.0
2017-Nov-19 07:00N 38°10' W 009°22'510.1
2017-Nov-19 06:30N 38°14' W 009°17'5 9.7
2017-Nov-19 06:00N 38°17' W 009°12'5 9.7
2017-Nov-19 05:30N 38°20' W 009°08'510.1
2017-Nov-19 05:00N 38°23' W 009°03'510.2
2017-Nov-19 04:30N 38°27' W 008°58'3 5.6
2017-Nov-19 03:56N 38°30' W 008°56'0 0.0
2017-Nov-19 03:29N 38°30' W 008°56'0 0.0
2017-Nov-19 02:59N 38°30' W 008°56'0 0.0
2017-Nov-19 02:29N 38°30' W 008°56'0 0.0
2017-Nov-19 01:53N 38°30' W 008°56'0 0.0
2017-Nov-19 01:26N 38°30' W 008°56'0 0.0
2017-Nov-19 00:56N 38°30' W 008°56'0 0.0
2017-Nov-19 00:26N 38°30' W 008°56'0 0.0
2017-Nov-18 23:59N 38°30' W 008°56'0 0.0
2017-Nov-18 23:26N 38°30' W 008°56'0 0.0
2017-Nov-18 22:59N 38°30' W 008°56'0 0.0
2017-Nov-18 22:29N 38°30' W 008°56'0 0.0
2017-Nov-18 21:56N 38°30' W 008°56'0 0.0
2017-Nov-18 21:29N 38°30' W 008°56'0 0.0
2017-Nov-18 20:59N 38°30' W 008°56'0 0.0
2017-Nov-18 20:29N 38°30' W 008°56'0 0.0
2017-Nov-18 19:59N 38°30' W 008°56'0 0.0
2017-Nov-18 19:29N 38°30' W 008°56'0 0.1
2017-Nov-18 19:00N 38°30' W 008°56'4 7.3
2017-Nov-18 18:30N 38°27' W 008°59'510.5
2017-Nov-18 18:00N 38°24' W 009°04'510.2
2017-Nov-18 17:31N 38°22' W 009°10'5 9.6
2017-Nov-18 17:00N 38°23' W 009°17'510.4
2017-Nov-18 16:31N 38°26' W 009°22'611.1
2017-Nov-18 16:01N 38°30' W 009°27'510.8
2017-Nov-18 15:30N 38°33' W 009°33'511.0
2017-Nov-18 15:00N 38°37' W 009°38'510.6
2017-Nov-18 14:31N 38°41' W 009°42'611.0
2017-Nov-18 14:00N 38°47' W 009°43'510.9
2017-Nov-18 13:31N 38°52' W 009°43'510.1
2017-Nov-18 13:01N 38°57' W 009°44'510.9
2017-Nov-18 12:30N 39°02' W 009°44'611.0
2017-Nov-18 12:00N 39°08' W 009°43'511.0
2017-Nov-18 11:30N 39°13' W 009°43'510.7
2017-Nov-18 11:00N 39°19' W 009°43'511.0
2017-Nov-18 10:30N 39°24' W 009°43'611.1
2017-Nov-18 09:59N 39°30' W 009°42'2810.8
2017-Nov-18 07:25N 39°50' W 009°17'1910.8
2017-Nov-18 05:40N 40°06' W 009°05'210.9
2017-Nov-18 05:30N 40°08' W 009°05'510.8
2017-Nov-18 05:01N 40°13' W 009°03'510.8
2017-Nov-18 04:30N 40°19' W 009°02'4310.7
2017-Nov-18 00:30N 40°59' W 008°44'510.7
2017-Nov-18 00:00N 41°05' W 008°43'510.7
2017-Nov-17 23:31N 41°10' W 008°42'1 2.2
2017-Nov-17 22:58N 41°11' W 008°42'0 0.0
2017-Nov-17 22:28N 41°11' W 008°42'0 0.0
2017-Nov-17 21:58N 41°11' W 008°42'0 0.0
2017-Nov-17 21:28N 41°11' W 008°42'0 0.0
2017-Nov-17 20:58N 41°11' W 008°42'0 0.0
2017-Nov-17 20:25N 41°11' W 008°42'0 0.0
2017-Nov-17 19:58N 41°11' W 008°42'0 0.0
2017-Nov-17 19:28N 41°11' W 008°42'0 0.0
2017-Nov-17 19:01N 41°11' W 008°42'0 0.0
2017-Nov-17 18:31N 41°11' W 008°42'0 0.0
2017-Nov-17 18:01N 41°11' W 008°42'0 0.0
2017-Nov-17 17:30N 41°11' W 008°42'0 0.0
2017-Nov-17 17:00N 41°11' W 008°42'0 0.0
2017-Nov-17 16:30N 41°11' W 008°42'0 0.0
2017-Nov-17 16:00N 41°11' W 008°42'0 0.0
2017-Nov-17 15:30N 41°11' W 008°42'0 0.0
2017-Nov-17 15:00N 41°11' W 008°42'0 0.0
2017-Nov-17 14:30N 41°11' W 008°42'0 0.0
2017-Nov-17 14:00N 41°11' W 008°42'0 0.0
2017-Nov-17 13:30N 41°11' W 008°42'0 0.0
2017-Nov-17 13:00N 41°11' W 008°42'0 0.0
2017-Nov-17 12:30N 41°11' W 008°42'0 0.0
2017-Nov-17 12:00N 41°11' W 008°42'0 0.0
2017-Nov-17 11:30N 41°11' W 008°42'0 0.0
2017-Nov-17 11:00N 41°11' W 008°42'0 0.0
2017-Nov-17 10:30N 41°11' W 008°42'0 0.0
2017-Nov-17 10:00N 41°11' W 008°42'0 0.0
2017-Nov-17 09:30N 41°11' W 008°42'0 0.0
2017-Nov-17 09:00N 41°11' W 008°42'0 0.0
2017-Nov-17 08:30N 41°11' W 008°42'0 0.0
2017-Nov-17 08:00N 41°11' W 008°42'0 0.0
2017-Nov-17 07:30N 41°11' W 008°42'0 0.0
2017-Nov-17 07:00N 41°11' W 008°42'0 0.0
2017-Nov-17 06:30N 41°11' W 008°42'0 0.0
2017-Nov-17 06:00N 41°11' W 008°42'0 0.0
2017-Nov-17 05:30N 41°11' W 008°42'0 0.0
2017-Nov-17 05:00N 41°11' W 008°42'0 0.0
2017-Nov-17 04:30N 41°11' W 008°42'0 0.0
2017-Nov-17 04:00N 41°11' W 008°42'0 0.0
2017-Nov-17 03:30N 41°11' W 008°42'0 0.0
2017-Nov-17 03:00N 41°11' W 008°42'0 0.0
2017-Nov-17 02:30N 41°11' W 008°42'0 0.0
2017-Nov-17 02:00N 41°11' W 008°42'0 0.0
2017-Nov-17 01:30N 41°11' W 008°42'0 0.0
2017-Nov-17 01:00N 41°11' W 008°42'0 0.0
2017-Nov-17 00:30N 41°11' W 008°42'0 0.0
2017-Nov-17 00:00N 41°11' W 008°42'0 0.0
2017-Nov-16 23:30N 41°11' W 008°42'0 0.0
2017-Nov-16 22:57N 41°11' W 008°42'0 0.0
2017-Nov-16 22:30N 41°11' W 008°42'0 0.0
2017-Nov-16 22:00N 41°11' W 008°42'0 0.0
2017-Nov-16 21:30N 41°11' W 008°42'2 5.0
2017-Nov-16 21:00N 41°09' W 008°43'0 0.3
2017-Nov-16 20:30N 41°09' W 008°43'0 0.2
2017-Nov-16 20:00N 41°09' W 008°43'4 7.0
2017-Nov-16 19:30N 41°05' W 008°44'5 9.9
2017-Nov-16 19:00N 41°01' W 008°45'1510.0
2017-Nov-16 17:33N 40°46' W 008°48'010.0
2017-Nov-16 17:30N 40°46' W 008°48'8110.0
2017-Nov-16 09:26N 39°34' W 009°38'610.4
2017-Nov-16 08:54N 39°30' W 009°42'5 9.9
2017-Nov-16 08:26N 39°25' W 009°43'410.2
2017-Nov-16 08:00N 39°21' W 009°42'510.1
2017-Nov-16 07:30N 39°16' W 009°43'5 9.9
2017-Nov-16 07:00N 39°11' W 009°42'5 9.9
2017-Nov-16 06:30N 39°06' W 009°42'5 9.9
2017-Nov-16 06:00N 39°01' W 009°43'5 9.9
2017-Nov-16 05:30N 38°56' W 009°43'5 9.8
2017-Nov-16 05:00N 38°51' W 009°42'5 9.8
2017-Nov-16 04:30N 38°47' W 009°42'5 9.8
2017-Nov-16 04:00N 38°42' W 009°41'5 9.5
2017-Nov-16 03:30N 38°38' W 009°38'510.3
2017-Nov-16 03:00N 38°34' W 009°33'510.2
2017-Nov-16 02:30N 38°31' W 009°28'510.3
2017-Nov-16 02:00N 38°28' W 009°23'510.5
2017-Nov-16 01:30N 38°24' W 009°18'5 9.8
2017-Nov-16 01:00N 38°22' W 009°12'510.6
2017-Nov-16 00:30N 38°23' W 009°06'510.2
2017-Nov-16 00:00N 38°26' W 009°00'4 9.0
2017-Nov-15 23:30N 38°29' W 008°56'1 1.3
2017-Nov-15 22:58N 38°30' W 008°56'0 0.0
2017-Nov-15 22:25N 38°30' W 008°56'0 0.0
2017-Nov-15 21:58N 38°30' W 008°56'0 0.0
2017-Nov-15 21:28N 38°30' W 008°56'0 0.0
2017-Nov-15 20:55N 38°30' W 008°56'0 0.0
2017-Nov-15 20:28N 38°30' W 008°56'0 0.0
2017-Nov-15 19:58N 38°30' W 008°56'0 0.0
2017-Nov-15 19:25N 38°30' W 008°56'0 0.0
2017-Nov-15 18:58N 38°30' W 008°56'0 0.0
2017-Nov-15 18:28N 38°30' W 008°56'0 0.0
2017-Nov-15 17:58N 38°30' W 008°56'0 0.0
2017-Nov-15 17:25N 38°30' W 008°56'0 0.0
2017-Nov-15 16:58N 38°30' W 008°56'0 0.0
2017-Nov-15 15:26N 38°30' W 008°56'2 4.1
2017-Nov-15 15:00N 38°28' W 008°57'510.5
2017-Nov-15 14:30N 38°25' W 009°02'510.9
2017-Nov-15 14:00N 38°23' W 009°09'510.4
2017-Nov-15 13:30N 38°23' W 009°15'510.8
2017-Nov-15 13:00N 38°26' W 009°21'510.9
2017-Nov-15 12:30N 38°29' W 009°26'611.1
2017-Nov-15 12:00N 38°33' W 009°32'611.2
2017-Nov-15 11:30N 38°36' W 009°38'511.0
2017-Nov-15 11:00N 38°40' W 009°43'611.0
2017-Nov-15 10:30N 38°45' W 009°44'611.0
2017-Nov-15 10:00N 38°51' W 009°44'611.2
2017-Nov-15 09:30N 38°56' W 009°44'611.0
2017-Nov-15 09:00N 39°02' W 009°44'611.2
2017-Nov-15 08:30N 39°08' W 009°44'611.1
2017-Nov-15 08:00N 39°13' W 009°43'611.0
2017-Nov-15 07:30N 39°19' W 009°43'611.1
2017-Nov-15 07:00N 39°24' W 009°43'611.2
2017-Nov-15 06:30N 39°30' W 009°42'910.8
2017-Nov-15 05:41N 39°38' W 009°39'8311.2
2017-Nov-14 22:16N 40°56' W 008°59'311.4
2017-Nov-14 22:00N 40°59' W 008°58'611.3
2017-Nov-14 21:28N 41°04' W 008°57'611.2
2017-Nov-14 20:59N 41°10' W 008°56'  
2017-Nov-11 08:19N 41°17' W 008°49'3 9.8
2017-Nov-11 08:00N 41°14' W 008°48'5 9.8
2017-Nov-11 07:30N 41°09' W 008°47'5 9.8
2017-Nov-11 07:00N 41°04' W 008°48'108 8.4
2017-Nov-10 18:10N 39°25' W 009°43'1 8.1
2017-Nov-10 18:00N 39°23' W 009°42'4 8.4
2017-Nov-10 17:30N 39°19' W 009°42'4 8.4
2017-Nov-10 17:00N 39°15' W 009°42'4 8.1
2017-Nov-10 16:30N 39°11' W 009°42'4 8.3
2017-Nov-10 16:00N 39°07' W 009°42'4 8.3
2017-Nov-10 15:30N 39°03' W 009°43'4 8.5
2017-Nov-10 15:00N 38°58' W 009°42'4 8.5
2017-Nov-10 14:30N 38°54' W 009°42'4 8.5
2017-Nov-10 14:00N 38°50' W 009°42'4 8.3
2017-Nov-10 13:30N 38°46' W 009°41'4 8.3
2017-Nov-10 13:00N 38°42' W 009°41'4 7.9
2017-Nov-10 12:30N 38°38' W 009°38'4 8.2
2017-Nov-10 12:00N 38°35' W 009°35'4 8.8
2017-Nov-10 11:30N 38°33' W 009°30'5 9.1
2017-Nov-10 11:00N 38°30' W 009°26'4 9.0
2017-Nov-10 10:30N 38°27' W 009°21'5 9.0
2017-Nov-10 10:00N 38°24' W 009°17'4 8.6
2017-Nov-10 09:30N 38°22' W 009°12'510.1
2017-Nov-10 09:00N 38°24' W 009°05'5 9.9
2017-Nov-10 08:30N 38°26' W 008°60'5 9.7
2017-Nov-10 08:00N 38°30' W 008°56'0 0.3
2017-Nov-10 07:29N 38°30' W 008°56'0 0.0
2017-Nov-10 06:59N 38°30' W 008°56'0 0.0
2017-Nov-10 06:29N 38°30' W 008°56'0 0.0
2017-Nov-10 05:59N 38°30' W 008°56'0 0.0
2017-Nov-10 05:29N 38°30' W 008°56'0 0.0
2017-Nov-10 04:50N 38°30' W 008°56'0 0.0
2017-Nov-10 04:29N 38°30' W 008°56'0 0.0
2017-Nov-10 03:59N 38°30' W 008°56'0 0.0
2017-Nov-10 03:26N 38°30' W 008°56'0 0.0
2017-Nov-10 02:59N 38°30' W 008°56'0 0.0
2017-Nov-10 02:29N 38°30' W 008°56'0 0.0
2017-Nov-10 01:56N 38°30' W 008°56'0 0.0
2017-Nov-10 01:29N 38°30' W 008°56'0 0.0
2017-Nov-10 00:59N 38°30' W 008°56'0 0.0
2017-Nov-10 00:29N 38°30' W 008°56'0 0.0
2017-Nov-09 23:59N 38°30' W 008°56'0 0.0
2017-Nov-09 23:26N 38°30' W 008°56'  
Track history (hours):
 
Tides and Currents Weather Stations Pressure Air Temp Water Temp Dewpoint Dewpoint Depression Visibility Wind Speed Wind Dir Waves Ship Positions

Roaz

Last reported at 2017-Nov-19 23:23 UTC. Time now 2017-Nov-24 02:08 UTC.
Position N 36°16' W 011°56'.

Length 82 m; draft 5.7 m.

Type: Cargo ship. MMSI: 255929000.

Date/timePositionNaut miles runAvg speedWind from/ knotsBaromVisibWave heightAir tempDewpointWater temp
2017-Nov-19 23:23N 36°16' W 011°56'410.6
2017-Nov-19 23:00N 36°19' W 011°52'510.4
2017-Nov-19 22:30N 36°22' W 011°48'510.6
2017-Nov-19 22:00N 36°26' W 011°43'611.1
2017-Nov-19 21:30N 36°30' W 011°38'611.0
2017-Nov-19 21:00N 36°33' W 011°32'510.3
2017-Nov-19 20:30N 36°37' W 011°28'510.1
2017-Nov-19 20:00N 36°40' W 011°23'510.1
2017-Nov-19 19:30N 36°43' W 011°18'510.3
2017-Nov-19 19:00N 36°47' W 011°13'510.3
2017-Nov-19 18:30N 36°50' W 011°09'510.3
2017-Nov-19 18:00N 36°54' W 011°04'510.2
2017-Nov-19 17:29N 36°58' W 010°59'710.4
2017-Nov-19 16:51N 37°02' W 010°54'610.3
2017-Nov-19 16:17N 37°07' W 010°48'710.1
2017-Nov-19 15:33N 37°12' W 010°42'0 9.8
2017-Nov-19 15:30N 37°12' W 010°42'510.0
2017-Nov-19 15:00N 37°16' W 010°37'510.3
2017-Nov-19 14:30N 37°19' W 010°32'510.5
2017-Nov-19 14:00N 37°22' W 010°27'510.4
2017-Nov-19 13:30N 37°26' W 010°22'510.1
2017-Nov-19 13:00N 37°29' W 010°18'510.1
2017-Nov-19 12:30N 37°33' W 010°13'510.0
2017-Nov-19 11:58N 37°36' W 010°08'510.1
2017-Nov-19 11:30N 37°39' W 010°04'5 9.8
2017-Nov-19 11:00N 37°43' W 009°59'5 9.8
2017-Nov-19 10:30N 37°46' W 009°55'5 9.8
2017-Nov-19 10:00N 37°49' W 009°50'510.2
2017-Nov-19 09:30N 37°53' W 009°45'510.2
2017-Nov-19 09:00N 37°56' W 009°40'510.4
2017-Nov-19 08:30N 37°60' W 009°36'510.2
2017-Nov-19 08:00N 38°03' W 009°31'5 9.9
2017-Nov-19 07:30N 38°07' W 009°27'510.0
2017-Nov-19 07:00N 38°10' W 009°22'510.1
2017-Nov-19 06:30N 38°14' W 009°17'5 9.7
2017-Nov-19 06:00N 38°17' W 009°12'5 9.7
2017-Nov-19 05:30N 38°20' W 009°08'510.1
2017-Nov-19 05:00N 38°23' W 009°03'510.2
2017-Nov-19 04:30N 38°27' W 008°58'3 5.6
2017-Nov-19 03:56N 38°30' W 008°56'0 0.0
2017-Nov-19 03:29N 38°30' W 008°56'0 0.0
2017-Nov-19 02:59N 38°30' W 008°56'0 0.0
2017-Nov-19 02:29N 38°30' W 008°56'0 0.0
2017-Nov-19 01:53N 38°30' W 008°56'0 0.0
2017-Nov-19 01:26N 38°30' W 008°56'0 0.0
2017-Nov-19 00:56N 38°30' W 008°56'0 0.0
2017-Nov-19 00:26N 38°30' W 008°56'0 0.0
2017-Nov-18 23:59N 38°30' W 008°56'0 0.0
2017-Nov-18 23:26N 38°30' W 008°56'0 0.0
2017-Nov-18 22:59N 38°30' W 008°56'0 0.0
2017-Nov-18 22:29N 38°30' W 008°56'0 0.0
2017-Nov-18 21:56N 38°30' W 008°56'0 0.0
2017-Nov-18 21:29N 38°30' W 008°56'0 0.0
2017-Nov-18 20:59N 38°30' W 008°56'0 0.0
2017-Nov-18 20:29N 38°30' W 008°56'0 0.0
2017-Nov-18 19:59N 38°30' W 008°56'0 0.0
2017-Nov-18 19:29N 38°30' W 008°56'0 0.1
2017-Nov-18 19:00N 38°30' W 008°56'4 7.3
2017-Nov-18 18:30N 38°27' W 008°59'510.5
2017-Nov-18 18:00N 38°24' W 009°04'510.2
2017-Nov-18 17:31N 38°22' W 009°10'5 9.6
2017-Nov-18 17:00N 38°23' W 009°17'510.4
2017-Nov-18 16:31N 38°26' W 009°22'611.1
2017-Nov-18 16:01N 38°30' W 009°27'510.8
2017-Nov-18 15:30N 38°33' W 009°33'511.0
2017-Nov-18 15:00N 38°37' W 009°38'510.6
2017-Nov-18 14:31N 38°41' W 009°42'611.0
2017-Nov-18 14:00N 38°47' W 009°43'510.9
2017-Nov-18 13:31N 38°52' W 009°43'510.1
2017-Nov-18 13:01N 38°57' W 009°44'510.9
2017-Nov-18 12:30N 39°02' W 009°44'611.0
2017-Nov-18 12:00N 39°08' W 009°43'511.0
2017-Nov-18 11:30N 39°13' W 009°43'510.7
2017-Nov-18 11:00N 39°19' W 009°43'511.0
2017-Nov-18 10:30N 39°24' W 009°43'611.1
2017-Nov-18 09:59N 39°30' W 009°42'2810.8
2017-Nov-18 07:25N 39°50' W 009°17'1910.8
2017-Nov-18 05:40N 40°06' W 009°05'210.9
2017-Nov-18 05:30N 40°08' W 009°05'510.8
2017-Nov-18 05:01N 40°13' W 009°03'510.8
2017-Nov-18 04:30N 40°19' W 009°02'4310.7
2017-Nov-18 00:30N 40°59' W 008°44'510.7
2017-Nov-18 00:00N 41°05' W 008°43'510.7
2017-Nov-17 23:31N 41°10' W 008°42'1 2.2
2017-Nov-17 22:58N 41°11' W 008°42'0 0.0
2017-Nov-17 22:28N 41°11' W 008°42'0 0.0
2017-Nov-17 21:58N 41°11' W 008°42'0 0.0
2017-Nov-17 21:28N 41°11' W 008°42'0 0.0
2017-Nov-17 20:58N 41°11' W 008°42'0 0.0
2017-Nov-17 20:25N 41°11' W 008°42'0 0.0
2017-Nov-17 19:58N 41°11' W 008°42'0 0.0
2017-Nov-17 19:28N 41°11' W 008°42'0 0.0
2017-Nov-17 19:01N 41°11' W 008°42'0 0.0
2017-Nov-17 18:31N 41°11' W 008°42'0 0.0
2017-Nov-17 18:01N 41°11' W 008°42'0 0.0
2017-Nov-17 17:30N 41°11' W 008°42'0 0.0
2017-Nov-17 17:00N 41°11' W 008°42'0 0.0
2017-Nov-17 16:30N 41°11' W 008°42'0 0.0
2017-Nov-17 16:00N 41°11' W 008°42'0 0.0
2017-Nov-17 15:30N 41°11' W 008°42'0 0.0
2017-Nov-17 15:00N 41°11' W 008°42'0 0.0
2017-Nov-17 14:30N 41°11' W 008°42'0 0.0
2017-Nov-17 14:00N 41°11' W 008°42'0 0.0
2017-Nov-17 13:30N 41°11' W 008°42'0 0.0
2017-Nov-17 13:00N 41°11' W 008°42'0 0.0
2017-Nov-17 12:30N 41°11' W 008°42'0 0.0
2017-Nov-17 12:00N 41°11' W 008°42'0 0.0
2017-Nov-17 11:30N 41°11' W 008°42'0 0.0
2017-Nov-17 11:00N 41°11' W 008°42'0 0.0
2017-Nov-17 10:30N 41°11' W 008°42'0 0.0
2017-Nov-17 10:00N 41°11' W 008°42'0 0.0
2017-Nov-17 09:30N 41°11' W 008°42'0 0.0
2017-Nov-17 09:00N 41°11' W 008°42'0 0.0
2017-Nov-17 08:30N 41°11' W 008°42'0 0.0
2017-Nov-17 08:00N 41°11' W 008°42'0 0.0
2017-Nov-17 07:30N 41°11' W 008°42'0 0.0
2017-Nov-17 07:00N 41°11' W 008°42'0 0.0
2017-Nov-17 06:30N 41°11' W 008°42'0 0.0
2017-Nov-17 06:00N 41°11' W 008°42'0 0.0
2017-Nov-17 05:30N 41°11' W 008°42'0 0.0
2017-Nov-17 05:00N 41°11' W 008°42'0 0.0
2017-Nov-17 04:30N 41°11' W 008°42'0 0.0
2017-Nov-17 04:00N 41°11' W 008°42'0 0.0
2017-Nov-17 03:30N 41°11' W 008°42'0 0.0
2017-Nov-17 03:00N 41°11' W 008°42'0 0.0
2017-Nov-17 02:30N 41°11' W 008°42'0 0.0
2017-Nov-17 02:00N 41°11' W 008°42'0 0.0
2017-Nov-17 01:30N 41°11' W 008°42'0 0.0
2017-Nov-17 01:00N 41°11' W 008°42'0 0.0
2017-Nov-17 00:30N 41°11' W 008°42'0 0.0
2017-Nov-17 00:00N 41°11' W 008°42'0 0.0
2017-Nov-16 23:30N 41°11' W 008°42'0 0.0
2017-Nov-16 22:57N 41°11' W 008°42'0 0.0
2017-Nov-16 22:30N 41°11' W 008°42'0 0.0
2017-Nov-16 22:00N 41°11' W 008°42'0 0.0
2017-Nov-16 21:30N 41°11' W 008°42'2 5.0
2017-Nov-16 21:00N 41°09' W 008°43'0 0.3
2017-Nov-16 20:30N 41°09' W 008°43'0 0.2
2017-Nov-16 20:00N 41°09' W 008°43'4 7.0
2017-Nov-16 19:30N 41°05' W 008°44'5 9.9
2017-Nov-16 19:00N 41°01' W 008°45'1510.0
2017-Nov-16 17:33N 40°46' W 008°48'010.0
2017-Nov-16 17:30N 40°46' W 008°48'8110.0
2017-Nov-16 09:26N 39°34' W 009°38'610.4
2017-Nov-16 08:54N 39°30' W 009°42'5 9.9
2017-Nov-16 08:26N 39°25' W 009°43'410.2
2017-Nov-16 08:00N 39°21' W 009°42'510.1
2017-Nov-16 07:30N 39°16' W 009°43'5 9.9
2017-Nov-16 07:00N 39°11' W 009°42'5 9.9
2017-Nov-16 06:30N 39°06' W 009°42'5 9.9
2017-Nov-16 06:00N 39°01' W 009°43'5 9.9
2017-Nov-16 05:30N 38°56' W 009°43'5 9.8
2017-Nov-16 05:00N 38°51' W 009°42'5 9.8
2017-Nov-16 04:30N 38°47' W 009°42'5 9.8
2017-Nov-16 04:00N 38°42' W 009°41'5 9.5
2017-Nov-16 03:30N 38°38' W 009°38'510.3
2017-Nov-16 03:00N 38°34' W 009°33'510.2
2017-Nov-16 02:30N 38°31' W 009°28'510.3
2017-Nov-16 02:00N 38°28' W 009°23'510.5
2017-Nov-16 01:30N 38°24' W 009°18'5 9.8
2017-Nov-16 01:00N 38°22' W 009°12'510.6
2017-Nov-16 00:30N 38°23' W 009°06'510.2
2017-Nov-16 00:00N 38°26' W 009°00'4 9.0
2017-Nov-15 23:30N 38°29' W 008°56'1 1.3
2017-Nov-15 22:58N 38°30' W 008°56'0 0.0
2017-Nov-15 22:25N 38°30' W 008°56'0 0.0
2017-Nov-15 21:58N 38°30' W 008°56'0 0.0
2017-Nov-15 21:28N 38°30' W 008°56'0 0.0
2017-Nov-15 20:55N 38°30' W 008°56'0 0.0
2017-Nov-15 20:28N 38°30' W 008°56'0 0.0
2017-Nov-15 19:58N 38°30' W 008°56'0 0.0
2017-Nov-15 19:25N 38°30' W 008°56'0 0.0
2017-Nov-15 18:58N 38°30' W 008°56'0 0.0
2017-Nov-15 18:28N 38°30' W 008°56'0 0.0
2017-Nov-15 17:58N 38°30' W 008°56'0 0.0
2017-Nov-15 17:25N 38°30' W 008°56'0 0.0
2017-Nov-15 16:58N 38°30' W 008°56'0 0.0
2017-Nov-15 15:26N 38°30' W 008°56'2 4.1
2017-Nov-15 15:00N 38°28' W 008°57'510.5
2017-Nov-15 14:30N 38°25' W 009°02'510.9
2017-Nov-15 14:00N 38°23' W 009°09'510.4
2017-Nov-15 13:30N 38°23' W 009°15'510.8
2017-Nov-15 13:00N 38°26' W 009°21'510.9
2017-Nov-15 12:30N 38°29' W 009°26'611.1
2017-Nov-15 12:00N 38°33' W 009°32'611.2
2017-Nov-15 11:30N 38°36' W 009°38'511.0
2017-Nov-15 11:00N 38°40' W 009°43'611.0
2017-Nov-15 10:30N 38°45' W 009°44'611.0
2017-Nov-15 10:00N 38°51' W 009°44'611.2
2017-Nov-15 09:30N 38°56' W 009°44'611.0
2017-Nov-15 09:00N 39°02' W 009°44'611.2
2017-Nov-15 08:30N 39°08' W 009°44'611.1
2017-Nov-15 08:00N 39°13' W 009°43'611.0
2017-Nov-15 07:30N 39°19' W 009°43'611.1
2017-Nov-15 07:00N 39°24' W 009°43'611.2
2017-Nov-15 06:30N 39°30' W 009°42'910.8
2017-Nov-15 05:41N 39°38' W 009°39'8311.2
2017-Nov-14 22:16N 40°56' W 008°59'311.4
2017-Nov-14 22:00N 40°59' W 008°58'611.3
2017-Nov-14 21:28N 41°04' W 008°57'611.2
2017-Nov-14 20:59N 41°10' W 008°56'  
2017-Nov-11 08:19N 41°17' W 008°49'3 9.8
2017-Nov-11 08:00N 41°14' W 008°48'5 9.8
2017-Nov-11 07:30N 41°09' W 008°47'5 9.8
2017-Nov-11 07:00N 41°04' W 008°48'108 8.4
2017-Nov-10 18:10N 39°25' W 009°43'1 8.1
2017-Nov-10 18:00N 39°23' W 009°42'4 8.4
2017-Nov-10 17:30N 39°19' W 009°42'4 8.4
2017-Nov-10 17:00N 39°15' W 009°42'4 8.1
2017-Nov-10 16:30N 39°11' W 009°42'4 8.3
2017-Nov-10 16:00N 39°07' W 009°42'4 8.3
2017-Nov-10 15:30N 39°03' W 009°43'4 8.5
2017-Nov-10 15:00N 38°58' W 009°42'4 8.5
2017-Nov-10 14:30N 38°54' W 009°42'4 8.5
2017-Nov-10 14:00N 38°50' W 009°42'4 8.3
2017-Nov-10 13:30N 38°46' W 009°41'4 8.3
2017-Nov-10 13:00N 38°42' W 009°41'4 7.9
2017-Nov-10 12:30N 38°38' W 009°38'4 8.2
2017-Nov-10 12:00N 38°35' W 009°35'4 8.8
2017-Nov-10 11:30N 38°33' W 009°30'5 9.1
2017-Nov-10 11:00N 38°30' W 009°26'4 9.0
2017-Nov-10 10:30N 38°27' W 009°21'5 9.0
2017-Nov-10 10:00N 38°24' W 009°17'4 8.6
2017-Nov-10 09:30N 38°22' W 009°12'510.1
2017-Nov-10 09:00N 38°24' W 009°05'5 9.9
2017-Nov-10 08:30N 38°26' W 008°60'5 9.7
2017-Nov-10 08:00N 38°30' W 008°56'0 0.3
2017-Nov-10 07:29N 38°30' W 008°56'0 0.0
2017-Nov-10 06:59N 38°30' W 008°56'0 0.0
2017-Nov-10 06:29N 38°30' W 008°56'0 0.0
2017-Nov-10 05:59N 38°30' W 008°56'0 0.0
2017-Nov-10 05:29N 38°30' W 008°56'0 0.0
2017-Nov-10 04:50N 38°30' W 008°56'0 0.0
2017-Nov-10 04:29N 38°30' W 008°56'0 0.0
2017-Nov-10 03:59N 38°30' W 008°56'0 0.0
2017-Nov-10 03:26N 38°30' W 008°56'0 0.0
2017-Nov-10 02:59N 38°30' W 008°56'0 0.0
2017-Nov-10 02:29N 38°30' W 008°56'0 0.0
2017-Nov-10 01:56N 38°30' W 008°56'0 0.0
2017-Nov-10 01:29N 38°30' W 008°56'0 0.0
2017-Nov-10 00:59N 38°30' W 008°56'0 0.0
2017-Nov-10 00:29N 38°30' W 008°56'0 0.0
2017-Nov-09 23:59N 38°30' W 008°56'0 0.0
2017-Nov-09 23:26N 38°30' W 008°56'  

Dump ship's entire track history